Time;durP1;ratioP1;P1;durP2;ratioP2;P2;SDS_P1;SDS_P2;PMS_P1;PMS_P2;Temp;Humidity;BMP_temperature;BMP_pressure;BME280_temperature;BME280_humidity;BME280_pressure;Samples;Min_cycle;Max_cycle;Signal;HPM_P1;HPM_P2
2023/01/08 00:02:00;;;;;;;19.53;2.77;;;;;;;16.62;nan;102078.06;4978815;28;20574;-87
2023/01/08 00:04:28;;;;;;;24.80;4.60;;;;;;;16.63;nan;102096.31;4966727;28;20459;-87
2023/01/08 00:06:58;;;;;;;29.63;4.17;;;;;;;16.67;nan;102089.38;4982689;28;20444;-87
2023/01/08 00:09:27;;;;;;;24.33;3.70;;;;;;;16.63;nan;102088.03;5014640;28;20502;-87
2023/01/08 00:11:55;;;;;;;39.10;4.97;;;;;;;16.68;nan;102093.84;4999061;28;20429;-87
2023/01/08 00:14:22;;;;;;;39.23;4.10;;;;;;;16.67;nan;102083.88;4998397;28;20496;-87
2023/01/08 00:16:51;;;;;;;21.20;2.93;;;;;;;16.62;nan;102067.00;4998534;28;20463;-87
2023/01/08 00:19:21;;;;;;;27.77;3.73;;;;;;;16.73;nan;102070.13;5014176;28;20448;-87
2023/01/08 00:21:48;;;;;;;23.43;2.80;;;;;;;16.71;nan;102061.19;4997965;28;20471;-87
2023/01/08 00:24:17;;;;;;;27.73;2.70;;;;;;;16.71;nan;102049.28;4965837;28;20448;-87
2023/01/08 00:26:46;;;;;;;29.53;3.40;;;;;;;16.72;nan;102049.09;4994005;28;20471;-87
2023/01/08 00:29:16;;;;;;;25.70;3.57;;;;;;;16.71;nan;102046.53;4998475;28;20464;-87
2023/01/08 00:31:45;;;;;;;25.73;4.60;;;;;;;16.73;nan;102047.19;5014168;28;20460;-87
2023/01/08 00:34:13;;;;;;;39.97;4.57;;;;;;;16.69;nan;102041.19;5013924;28;21044;-87
2023/01/08 00:36:42;;;;;;;37.97;3.87;;;;;;;16.74;nan;102043.38;4998169;28;20452;-87
2023/01/08 00:39:13;;;;;;;30.83;3.50;;;;;;;16.73;nan;102039.75;4998283;28;20479;-88
2023/01/08 00:41:44;;;;;;;23.00;3.60;;;;;;;16.72;nan;102051.00;5014070;28;20468;-87
2023/01/08 00:44:12;;;;;;;31.20;4.90;;;;;;;16.74;nan;102048.88;5030974;28;20497;-88
2023/01/08 00:46:39;;;;;;;26.63;3.47;;;;;;;16.70;nan;102051.19;4998285;28;20941;-88
2023/01/08 00:49:11;;;;;;;32.50;4.10;;;;;;;16.71;nan;102052.03;4962251;28;20456;-88
2023/01/08 00:51:39;;;;;;;31.90;3.50;;;;;;;16.67;nan;102048.84;5029941;28;20561;-88
2023/01/08 00:54:09;;;;;;;22.00;2.60;;;;;;;16.67;nan;102043.31;4997244;28;20492;-87
2023/01/08 00:56:37;;;;;;;23.80;3.97;;;;;;;16.64;nan;102040.94;4990726;28;20448;-88
2023/01/08 00:59:06;;;;;;;20.97;3.77;;;;;;;16.62;nan;102031.13;4997317;28;20543;-87
2023/01/08 01:01:33;;;;;;;22.90;3.23;;;;;;;16.59;nan;102047.03;4996991;28;20449;-88
2023/01/08 01:04:01;;;;;;;18.53;3.70;;;;;;;16.55;nan;102058.66;4997311;28;20468;-88
2023/01/08 01:06:30;;;;;;;25.27;2.80;;;;;;;16.56;nan;102039.16;4997850;28;20911;-87
2023/01/08 01:08:58;;;;;;;29.20;3.80;;;;;;;16.58;nan;102028.75;4997659;28;20448;-88
2023/01/08 01:11:27;;;;;;;19.73;2.80;;;;;;;16.51;nan;102022.38;4997159;28;20459;-87
2023/01/08 01:13:55;;;;;;;25.37;2.73;;;;;;;16.54;nan;102021.97;4896952;29;20481;-88
2023/01/08 01:16:23;;;;;;;28.80;4.17;;;;;;;16.51;nan;102016.84;4882214;29;20450;-87
2023/01/08 01:18:52;;;;;;;23.83;2.83;;;;;;;16.51;nan;102018.75;4885323;29;20527;-87
2023/01/08 01:21:30;;;;;;;16.80;3.10;;;;;;;16.48;nan;102021.91;4888367;29;20463;-87
2023/01/08 01:24:01;;;;;;;18.87;2.77;;;;;;;16.52;nan;102031.50;4889019;29;20871;-87
2023/01/08 01:26:31;;;;;;;25.33;4.37;;;;;;;16.49;nan;102030.00;4919894;29;20475;-88
2023/01/08 01:29:00;;;;;;;16.73;2.90;;;;;;;16.48;nan;102033.81;4904256;29;20447;-87
2023/01/08 01:31:31;;;;;;;18.87;2.27;;;;;;;16.48;nan;102027.44;4939828;28;20452;-87
2023/01/08 01:34:01;;;;;;;19.97;3.33;;;;;;;16.45;nan;102025.91;4996942;28;20476;-87
2023/01/08 01:36:29;;;;;;;21.37;3.20;;;;;;;16.40;nan;102022.91;5012777;28;20502;-88
2023/01/08 01:38:58;;;;;;;20.63;3.27;;;;;;;16.42;nan;102018.03;4994646;28;20456;-88
2023/01/08 01:41:27;;;;;;;18.03;2.73;;;;;;;16.42;nan;102018.03;4997007;28;20448;-87
2023/01/08 01:43:56;;;;;;;25.40;3.00;;;;;;;16.39;nan;102012.91;5012643;28;20490;-87
2023/01/08 01:46:38;;;;;;;28.67;3.77;;;;;;;16.37;nan;102015.03;4965408;28;20444;-87
2023/01/08 01:49:12;;;;;;;25.53;3.10;;;;;;;16.37;nan;102020.53;5012752;28;20451;-87
2023/01/08 01:51:42;;;;;;;20.73;3.33;;;;;;;16.33;nan;102019.25;5028398;28;20445;-87
2023/01/08 01:54:10;;;;;;;29.70;3.67;;;;;;;16.31;nan;102010.31;4978826;28;20485;-88
2023/01/08 01:56:38;;;;;;;22.57;5.13;;;;;;;16.34;nan;102015.44;4996271;28;20510;-87
2023/01/08 01:59:06;;;;;;;29.27;3.30;;;;;;;16.34;nan;102015.44;4996553;28;20990;-87
2023/01/08 02:01:34;;;;;;;25.87;4.10;;;;;;;16.36;nan;102013.31;4996086;28;20460;-87
2023/01/08 02:04:04;;;;;;;24.93;3.37;;;;;;;16.37;nan;102020.53;5028730;28;20452;-87
2023/01/08 02:07:02;;;;;;;30.80;3.77;;;;;;;16.36;nan;102021.59;4996266;28;20459;-87
2023/01/08 02:09:46;;;;;;;21.30;3.40;;;;;;;16.41;nan;102027.38;4993932;28;20475;-87
2023/01/08 02:12:41;;;;;;;29.67;4.47;;;;;;;16.42;nan;102031.84;4965970;28;20498;-87
2023/01/08 02:15:23;;;;;;;20.00;3.07;;;;;;;16.44;nan;102038.00;4997037;28;21001;-88
2023/01/08 02:18:02;;;;;;;39.73;4.43;;;;;;;16.44;nan;102028.88;5011055;28;20495;-87
2023/01/08 02:20:35;;;;;;;26.10;2.70;;;;;;;16.48;nan;102028.28;5012854;28;21052;-87
2023/01/08 02:23:36;;;;;;;22.67;4.30;;;;;;;16.47;nan;102015.53;5012278;28;20514;-87
2023/01/08 02:26:22;;;;;;;28.13;3.53;;;;;;;16.45;nan;102017.66;5012258;28;20482;-88
2023/01/08 02:29:17;;;;;;;30.77;3.37;;;;;;;16.45;nan;102020.41;5028836;28;20555;-87
2023/01/08 02:31:45;;;;;;;18.87;3.13;;;;;;;16.46;nan;102015.75;4993841;28;20962;-87
2023/01/08 02:34:14;;;;;;;30.13;4.07;;;;;;;16.45;nan;102022.31;4995739;28;20480;-87
2023/01/08 02:37:11;;;;;;;27.27;3.57;;;;;;;16.45;nan;102025.91;4979161;28;20456;-88
2023/01/08 02:39:56;;;;;;;27.70;3.37;;;;;;;16.39;nan;102007.41;4996005;28;21008;-87
2023/01/08 02:42:45;;;;;;;21.83;3.43;;;;;;;16.44;nan;102013.19;5012646;28;20440;-87
2023/01/08 02:45:35;;;;;;;20.53;3.23;;;;;;;16.42;nan;102003.38;5012687;28;20456;-87
2023/01/08 02:48:11;;;;;;;24.60;4.70;;;;;;;16.43;nan;102005.94;5027144;28;20521;-87
2023/01/08 02:50:45;;;;;;;20.53;3.30;;;;;;;16.44;nan;101999.38;5012286;28;20852;-87
2023/01/08 02:53:33;;;;;;;26.43;3.67;;;;;;;16.47;nan;101993.47;4996328;28;20455;-86
2023/01/08 02:56:08;;;;;;;19.00;3.00;;;;;;;16.45;nan;101998.31;4956333;28;20450;-87
2023/01/08 02:58:37;;;;;;;26.13;3.10;;;;;;;16.40;nan;102003.59;4940513;29;20446;-87
2023/01/08 03:01:08;;;;;;;28.37;3.03;;;;;;;16.41;nan;101998.94;4951173;29;20451;-87
2023/01/08 03:03:38;;;;;;;21.53;2.90;;;;;;;16.43;nan;101994.91;4922788;28;20874;-87
2023/01/08 03:06:14;;;;;;;30.93;2.80;;;;;;;16.44;nan;101987.50;4956330;28;20516;-87
2023/01/08 03:08:43;;;;;;;22.23;3.23;;;;;;;16.47;nan;101998.97;4956200;28;20449;-87
2023/01/08 03:11:13;;;;;;;25.43;3.10;;;;;;;16.45;nan;101990.03;4972217;28;20460;-86
2023/01/08 03:13:46;;;;;;;22.00;3.03;;;;;;;16.47;nan;102007.25;4913194;29;20451;-87
2023/01/08 03:16:30;;;;;;;19.03;2.93;;;;;;;16.44;nan;101998.53;4961081;28;20473;-87
2023/01/08 03:19:21;;;;;;;21.50;2.83;;;;;;;16.45;nan;102003.84;4954131;28;20450;-87
2023/01/08 03:21:50;;;;;;;18.10;2.23;;;;;;;16.41;nan;101997.00;4901383;29;20461;-87
2023/01/08 03:24:25;;;;;;;28.37;2.90;;;;;;;16.40;nan;101998.06;4901682;29;20461;-87
2023/01/08 03:26:57;;;;;;;25.27;3.23;;;;;;;16.37;nan;101981.91;4868231;29;20453;-87
2023/01/08 03:29:26;;;;;;;17.77;2.50;;;;;;;16.40;nan;101975.13;4883657;29;20453;-87
2023/01/08 03:32:01;;;;;;;22.30;2.80;;;;;;;16.38;nan;101964.31;4898613;29;20449;-87
2023/01/08 03:34:31;;;;;;;17.50;2.70;;;;;;;16.36;nan;101960.88;4940703;29;20490;-87
2023/01/08 03:37:07;;;;;;;18.30;2.20;;;;;;;16.32;nan;101959.63;4955977;29;20474;-87
2023/01/08 03:40:00;;;;;;;21.80;2.63;;;;;;;16.32;nan;101978.06;4940521;29;20447;-87
2023/01/08 03:42:28;;;;;;;17.50;3.07;;;;;;;16.34;nan;101979.59;4947271;29;20953;-87
2023/01/08 03:44:58;;;;;;;33.27;3.63;;;;;;;16.30;nan;101958.09;4903553;29;20523;-87
2023/01/08 03:47:50;;;;;;;22.70;2.50;;;;;;;16.38;nan;101971.72;4964475;28;20461;-87
2023/01/08 03:50:23;;;;;;;22.43;2.10;;;;;;;16.36;nan;101963.66;4999295;28;20448;-87
2023/01/08 03:52:50;;;;;;;14.47;2.27;;;;;;;16.35;nan;101977.69;5014928;28;20456;-87
2023/01/08 03:55:18;;;;;;;21.50;3.57;;;;;;;16.35;nan;101975.78;4983015;28;20480;-88
2023/01/08 03:57:48;;;;;;;23.13;3.37;;;;;;;16.37;nan;101976.38;4998708;28;20455;-88
2023/01/08 04:00:16;;;;;;;26.60;2.70;;;;;;;16.35;nan;101975.78;4920863;29;20459;-88
2023/01/08 04:02:44;;;;;;;22.23;2.90;;;;;;;16.36;nan;101976.59;4905710;29;20452;-87
2023/01/08 04:05:12;;;;;;;15.30;3.13;;;;;;;16.32;nan;101976.16;4921274;29;20451;-87
2023/01/08 04:07:41;;;;;;;26.47;3.00;;;;;;;16.35;nan;101973.00;4920479;29;20460;-87
2023/01/08 04:10:09;;;;;;;19.10;2.83;;;;;;;16.39;nan;101979.81;4898059;29;20465;-87
2023/01/08 04:12:36;;;;;;;17.30;2.30;;;;;;;16.33;nan;101958.56;4877961;29;20506;-87
2023/01/08 04:15:05;;;;;;;21.13;3.00;;;;;;;16.39;nan;101973.44;4905233;29;21107;-87
2023/01/08 04:17:32;;;;;;;26.20;3.30;;;;;;;16.30;nan;101958.97;4904884;29;21064;-87
2023/01/08 04:20:01;;;;;;;24.30;4.07;;;;;;;16.37;nan;101970.88;4889826;29;20942;-88
2023/01/08 04:22:31;;;;;;;21.70;2.87;;;;;;;16.35;nan;101959.22;4904549;29;20452;-87
2023/01/08 04:24:59;;;;;;;21.70;2.87;;;;;;;16.33;nan;101955.81;4977630;28;20476;-87
2023/01/08 04:27:31;;;;;;;28.77;2.60;;;;;;;16.31;nan;101960.66;4995821;28;20453;-87
2023/01/08 04:30:00;;;;;;;20.17;2.37;;;;;;;16.29;nan;101951.72;4998294;28;20448;-87
2023/01/08 04:32:28;;;;;;;22.80;3.77;;;;;;;16.24;nan;101948.72;5014362;28;20452;-87
2023/01/08 04:34:55;;;;;;;30.67;3.07;;;;;;;16.29;nan;101950.88;4985854;28;20483;-86
2023/01/08 04:37:26;;;;;;;20.57;2.10;;;;;;;16.28;nan;101955.53;4981857;28;20452;-86
2023/01/08 04:40:01;;;;;;;19.83;3.00;;;;;;;16.22;nan;101934.28;5014423;28;20788;-86
2023/01/08 04:42:28;;;;;;;14.20;2.40;;;;;;;16.27;nan;101940.03;4978899;28;20519;-87
2023/01/08 04:44:57;;;;;;;20.70;3.10;;;;;;;16.23;nan;101935.97;4962641;28;20453;-87
2023/01/08 04:47:25;;;;;;;20.33;2.53;;;;;;;16.25;nan;101944.91;4968299;28;20460;-87
2023/01/08 04:49:53;;;;;;;20.70;3.20;;;;;;;16.22;nan;101934.28;4996232;28;20450;-87
2023/01/08 04:52:20;;;;;;;20.80;3.10;;;;;;;16.24;nan;101937.69;4981668;28;20517;-87
2023/01/08 04:54:49;;;;;;;18.43;2.30;;;;;;;16.21;nan;101925.16;5013783;28;21039;-87
2023/01/08 04:57:17;;;;;;;15.33;2.83;;;;;;;16.22;nan;101937.03;4981479;28;20452;-87
2023/01/08 04:59:45;;;;;;;24.10;2.60;;;;;;;16.22;nan;101945.31;4997360;28;20452;-87
2023/01/08 05:02:15;;;;;;;25.30;2.50;;;;;;;16.21;nan;101949.13;5006973;28;20514;-87
2023/01/08 05:04:43;;;;;;;27.87;2.83;;;;;;;16.20;nan;101947.41;5007374;28;20444;-87
2023/01/08 05:07:10;;;;;;;20.43;2.30;;;;;;;16.15;nan;101938.91;4981131;28;20991;-87
2023/01/08 05:09:38;;;;;;;18.10;3.47;;;;;;;16.17;nan;101925.75;4997256;28;20456;-87
2023/01/08 05:12:06;;;;;;;11.57;2.50;;;;;;;16.14;nan;101927.03;4996317;28;20452;-87
2023/01/08 05:14:35;;;;;;;19.23;2.80;;;;;;;16.18;nan;101941.25;4981515;28;20480;-87
2023/01/08 05:17:03;;;;;;;26.63;2.97;;;;;;;16.19;nan;101948.47;4965656;28;20946;-87
2023/01/08 05:19:32;;;;;;;19.73;2.50;;;;;;;16.21;nan;101946.38;4972916;28;21100;-88
2023/01/08 05:22:07;;;;;;;20.80;2.70;;;;;;;16.19;nan;101951.22;4941377;28;21044;-88
2023/01/08 05:24:35;;;;;;;25.93;2.73;;;;;;;16.19;nan;101938.28;4926216;28;20485;-88
2023/01/08 05:27:03;;;;;;;21.03;4.27;;;;;;;16.19;nan;101937.44;4925482;28;20463;-88
2023/01/08 05:29:36;;;;;;;21.80;3.17;;;;;;;16.21;nan;101954.63;4927229;28;20532;-88
2023/01/08 05:32:08;;;;;;;19.47;2.77;;;;;;;16.15;nan;101950.81;4920958;28;20489;-88
2023/01/08 05:34:37;;;;;;;26.17;3.13;;;;;;;16.15;nan;101956.31;4941939;28;20508;-88
2023/01/08 05:37:05;;;;;;;25.27;3.40;;;;;;;16.13;nan;101949.28;4924022;28;20459;-87
2023/01/08 05:39:32;;;;;;;17.43;2.80;;;;;;;16.15;nan;101956.31;4906460;29;20460;-87
2023/01/08 05:42:01;;;;;;;29.00;2.20;;;;;;;16.14;nan;101953.75;4921504;28;20470;-87
2023/01/08 05:44:29;;;;;;;17.40;2.50;;;;;;;16.12;nan;101956.72;4954202;29;20490;-88
2023/01/08 05:46:57;;;;;;;23.60;2.70;;;;;;;16.09;nan;101961.78;4933819;28;20433;-87
2023/01/08 05:49:34;;;;;;;25.50;4.13;;;;;;;16.01;nan;101937.09;4997255;28;20444;-87
2023/01/08 05:52:10;;;;;;;24.73;3.40;;;;;;;16.11;nan;101954.16;5013692;28;20463;-87
2023/01/08 05:54:38;;;;;;;17.83;1.87;;;;;;;16.10;nan;101955.19;4996778;28;20480;-87
2023/01/08 05:57:08;;;;;;;19.87;2.70;;;;;;;16.09;nan;101951.59;4997137;28;20926;-87
2023/01/08 05:59:35;;;;;;;16.63;2.47;;;;;;;16.10;nan;101960.72;4996367;28;20519;-87
2023/01/08 06:02:04;;;;;;;19.23;3.43;;;;;;;16.06;nan;101953.91;4996697;28;20819;-87
2023/01/08 06:04:34;;;;;;;18.67;3.33;;;;;;;16.08;nan;101960.06;4996825;28;20950;-87
2023/01/08 06:07:03;;;;;;;36.13;8.00;;;;;;;16.08;nan;101952.66;4995429;28;20448;-88
2023/01/08 06:09:34;;;;;;;23.60;5.40;;;;;;;16.09;nan;101970.03;4981828;28;20444;-87
2023/01/08 06:12:11;;;;;;;22.70;4.37;;;;;;;16.11;nan;101959.66;4996827;28;20448;-87
2023/01/08 06:14:40;;;;;;;32.60;8.33;;;;;;;16.10;nan;101961.56;5012854;28;20479;-88
2023/01/08 06:17:19;;;;;;;38.37;8.33;;;;;;;16.10;nan;101967.09;4980633;28;20452;-87
2023/01/08 06:19:48;;;;;;;22.60;4.40;;;;;;;16.09;nan;101961.78;5014511;28;20801;-87
2023/01/08 06:22:24;;;;;;;37.30;13.37;;;;;;;16.05;nan;101972.34;4992444;28;20464;-87
2023/01/08 06:24:52;;;;;;;32.90;6.83;;;;;;;16.02;nan;101966.38;4973292;28;20465;-87
2023/01/08 06:27:23;;;;;;;29.73;8.20;;;;;;;16.08;nan;101980.22;4977015;28;20450;-87
2023/01/08 06:29:50;;;;;;;37.33;8.80;;;;;;;16.08;nan;101973.84;4995735;28;20460;-88
2023/01/08 06:32:20;;;;;;;23.13;7.13;;;;;;;16.05;nan;101975.09;5013018;28;20439;-88
2023/01/08 06:34:47;;;;;;;22.57;3.90;;;;;;;16.09;nan;101972.81;5024527;28;20476;-88
2023/01/08 06:37:15;;;;;;;23.53;4.37;;;;;;;16.03;nan;101965.31;4988247;28;20478;-87
2023/01/08 06:39:44;;;;;;;14.43;3.10;;;;;;;16.07;nan;101969.38;5005089;28;20448;-88
2023/01/08 06:42:13;;;;;;;23.90;3.47;;;;;;;16.10;nan;101982.78;5020728;28;20449;-86
2023/01/08 06:44:42;;;;;;;27.20;4.20;;;;;;;16.08;nan;101979.38;5035717;28;20445;-88
2023/01/08 06:47:19;;;;;;;26.33;3.20;;;;;;;16.10;nan;101980.03;5020435;28;20444;-87
2023/01/08 06:49:58;;;;;;;18.83;2.83;;;;;;;16.08;nan;101982.97;4982049;28;20452;-88
2023/01/08 06:52:29;;;;;;;19.10;2.90;;;;;;;16.12;nan;101997.22;4981119;28;20448;-87
2023/01/08 06:54:57;;;;;;;21.43;2.20;;;;;;;16.11;nan;101995.53;5014800;28;20487;-87
2023/01/08 06:57:25;;;;;;;13.73;2.13;;;;;;;16.09;nan;101973.66;4981771;28;20452;-88
2023/01/08 06:59:53;;;;;;;14.90;1.97;;;;;;;16.09;nan;101989.34;4978598;28;20448;-88
2023/01/08 07:02:22;;;;;;;18.00;2.40;;;;;;;16.09;nan;101983.84;4999618;28;20822;-89
2023/01/08 07:04:52;;;;;;;19.10;1.77;;;;;;;16.06;nan;101984.22;5000392;28;20509;-88
2023/01/08 07:07:20;;;;;;;16.80;1.97;;;;;;;16.06;nan;101992.50;4964809;28;20510;-88
2023/01/08 07:09:49;;;;;;;19.90;2.83;;;;;;;16.02;nan;101996.72;4964759;28;20449;-88
2023/01/08 07:12:21;;;;;;;18.93;1.90;;;;;;;16.03;nan;101995.66;5016189;28;20444;-88
2023/01/08 07:14:49;;;;;;;17.60;2.20;;;;;;;16.01;nan;101998.59;4995609;28;20534;-89
2023/01/08 07:17:20;;;;;;;16.20;1.90;;;;;;;15.99;nan;101986.06;4986161;28;20539;-89
2023/01/08 07:19:49;;;;;;;8.80;1.50;;;;;;;15.97;nan;101985.44;5001132;28;20528;-89
2023/01/08 07:22:17;;;;;;;15.10;2.13;;;;;;;15.92;nan;101985.19;4971300;28;21025;-88
2023/01/08 07:24:45;;;;;;;13.23;1.70;;;;;;;15.91;nan;101983.47;4999895;28;20436;-87
2023/01/08 07:27:13;;;;;;;18.77;2.23;;;;;;;15.87;nan;101994.91;4995919;28;20441;-87
2023/01/08 07:29:41;;;;;;;21.20;2.93;;;;;;;15.96;nan;102011.31;4948319;28;20457;-89
2023/01/08 07:32:10;;;;;;;11.67;2.10;;;;;;;15.89;nan;101994.69;4964933;28;20441;-87
2023/01/08 07:34:38;;;;;;;17.80;2.50;;;;;;;15.96;nan;102012.16;4998850;28;20444;-88
2023/01/08 07:37:05;;;;;;;22.73;2.23;;;;;;;15.95;nan;102013.22;4972062;28;20445;-88
2023/01/08 07:39:36;;;;;;;22.60;2.73;;;;;;;15.96;nan;102011.31;4998907;28;20456;-87
2023/01/08 07:42:04;;;;;;;25.87;4.60;;;;;;;15.89;nan;101998.31;5015974;28;20458;-88
2023/01/08 07:44:32;;;;;;;15.27;2.90;;;;;;;15.97;nan;102008.31;4999485;28;20448;-88
2023/01/08 07:47:01;;;;;;;14.13;3.70;;;;;;;15.97;nan;102000.06;4983052;28;20457;-87
2023/01/08 07:49:29;;;;;;;20.77;4.70;;;;;;;15.88;nan;101993.84;5016095;28;20456;-87
2023/01/08 07:51:57;;;;;;;26.40;2.83;;;;;;;16.00;nan;102013.44;4983304;28;20522;-87
2023/01/08 07:54:25;;;;;;;22.47;3.17;;;;;;;15.96;nan;102005.78;4999468;28;20452;-87
2023/01/08 07:56:53;;;;;;;24.93;3.20;;;;;;;16.04;nan;102000.13;4998595;28;20492;-87
2023/01/08 07:59:22;;;;;;;46.33;4.23;;;;;;;16.06;nan;101996.13;4992509;28;20463;-87
2023/01/08 08:01:51;;;;;;;29.07;3.73;;;;;;;16.07;nan;102006.09;4998342;28;20514;-87
2023/01/08 08:04:21;;;;;;;24.60;3.60;;;;;;;16.05;nan;101999.06;5007961;28;20456;-87
2023/01/08 08:06:50;;;;;;;22.60;3.07;;;;;;;16.07;nan;102003.34;5014168;28;20456;-87
2023/01/08 08:09:19;;;;;;;18.57;3.63;;;;;;;16.13;nan;102016.34;4992380;28;20946;-87
2023/01/08 08:11:48;;;;;;;24.77;3.47;;;;;;;16.15;nan;102010.63;5014708;28;20444;-88
2023/01/08 08:14:17;;;;;;;26.37;3.67;;;;;;;16.16;nan;102012.34;4982208;28;20455;-88
2023/01/08 08:16:47;;;;;;;24.77;5.10;;;;;;;16.15;nan;102025.28;4998059;28;20476;-87
2023/01/08 08:19:15;;;;;;;23.33;3.60;;;;;;;16.13;nan;102016.34;5014947;28;20969;-87
2023/01/08 08:21:46;;;;;;;27.67;3.97;;;;;;;16.19;nan;102025.72;4998290;28;20502;-87
2023/01/08 08:24:15;;;;;;;33.70;3.63;;;;;;;16.20;nan;102032.94;4998225;28;20459;-87
2023/01/08 08:26:43;;;;;;;27.33;3.73;;;;;;;16.22;nan;102033.59;5030285;28;20886;-88
2023/01/08 08:29:11;;;;;;;23.90;3.50;;;;;;;16.24;nan;102034.25;4997194;28;20463;-87
2023/01/08 08:31:41;;;;;;;26.47;3.20;;;;;;;16.28;nan;102032.78;4998271;28;20467;-87
2023/01/08 08:34:09;;;;;;;24.70;3.60;;;;;;;16.29;nan;102031.75;4982996;28;20453;-87
2023/01/08 08:36:37;;;;;;;28.00;3.83;;;;;;;16.29;nan;102025.38;5019247;28;20857;-88
2023/01/08 08:39:07;;;;;;;21.10;2.93;;;;;;;16.29;nan;102023.47;4986236;28;20836;-89
2023/01/08 08:41:41;;;;;;;23.47;3.60;;;;;;;16.31;nan;102026.03;4998841;28;20456;-89
2023/01/08 08:44:17;;;;;;;19.67;4.60;;;;;;;16.35;nan;102039.22;4982939;28;20448;-91
2023/01/08 08:46:45;;;;;;;20.93;3.60;;;;;;;16.35;nan;102024.59;4983695;28;20795;-88
2023/01/08 08:49:14;;;;;;;26.13;3.90;;;;;;;16.35;nan;102028.19;4998151;28;20967;-88
2023/01/08 08:51:44;;;;;;;23.47;5.07;;;;;;;16.40;nan;102050.50;4997641;28;20456;-87
2023/01/08 08:54:13;;;;;;;26.90;3.80;;;;;;;16.41;nan;102049.44;4997442;28;20518;-88
2023/01/08 08:56:41;;;;;;;15.03;3.57;;;;;;;16.34;nan;102043.03;4982081;28;20491;-88
2023/01/08 08:59:11;;;;;;;22.50;4.50;;;;;;;16.39;nan;102045.19;4981794;28;20788;-88
2023/01/08 09:01:40;;;;;;;26.70;6.10;;;;;;;16.44;nan;102071.13;4997799;28;20459;-88
2023/01/08 09:04:08;;;;;;;20.00;3.70;;;;;;;16.46;nan;102058.00;4997783;28;20460;-88
2023/01/08 09:06:37;;;;;;;17.30;2.67;;;;;;;16.50;nan;102075.84;4981923;28;20471;-88
2023/01/08 09:09:05;;;;;;;12.63;2.07;;;;;;;16.49;nan;102067.78;4981717;28;20448;-88
2023/01/08 09:11:36;;;;;;;9.63;1.80;;;;;;;16.51;nan;102074.81;4997771;28;20455;-88
2023/01/08 09:14:04;;;;;;;14.43;2.70;;;;;;;16.54;nan;102074.41;4997633;28;20848;-88
2023/01/08 09:16:35;;;;;;;12.40;1.90;;;;;;;16.54;nan;102076.31;4972322;28;20481;-88
2023/01/08 09:19:04;;;;;;;15.53;2.13;;;;;;;16.49;nan;102067.78;4947266;28;20507;-88
2023/01/08 09:21:33;;;;;;;13.07;1.97;;;;;;;16.58;nan;102081.22;4968831;28;20804;-88
2023/01/08 09:24:04;;;;;;;10.40;2.10;;;;;;;16.61;nan;102081.88;4996715;28;20456;-88
2023/01/08 09:26:33;;;;;;;24.50;4.20;;;;;;;16.62;nan;102089.09;5013396;28;20479;-88
2023/01/08 09:29:06;;;;;;;23.97;3.30;;;;;;;16.67;nan;102089.38;4997259;28;20456;-88
2023/01/08 09:31:34;;;;;;;33.20;4.53;;;;;;;16.73;nan;102091.34;5016156;28;20519;-90
2023/01/08 09:34:04;;;;;;;25.53;4.90;;;;;;;16.71;nan;102087.94;4986001;28;20441;-90
2023/01/08 09:36:34;;;;;;;25.90;7.03;;;;;;;16.75;nan;102083.69;4965170;28;20480;-90
2023/01/08 09:39:05;;;;;;;31.67;6.57;;;;;;;16.80;nan;102103.28;5001752;28;20443;-90
2023/01/08 09:41:37;;;;;;;34.33;7.00;;;;;;;16.79;nan;102104.34;4977547;28;20961;-90
2023/01/08 09:44:05;;;;;;;24.87;4.63;;;;;;;16.77;nan;102100.91;5000633;28;20463;-89
2023/01/08 09:46:41;;;;;;;23.63;3.97;;;;;;;16.80;nan;102097.75;4981774;28;20453;-89
2023/01/08 09:49:13;;;;;;;21.77;4.20;;;;;;;16.84;nan;102104.59;4997400;28;20460;-89
2023/01/08 09:51:41;;;;;;;32.53;3.37;;;;;;;16.88;nan;102106.75;5013001;28;20440;-89
2023/01/08 09:54:10;;;;;;;32.73;4.70;;;;;;;16.96;nan;102113.16;4996230;28;20456;-89
2023/01/08 09:56:38;;;;;;;31.20;5.90;;;;;;;17.02;nan;102113.22;4980676;28;20852;-88
2023/01/08 09:59:05;;;;;;;31.50;3.83;;;;;;;17.02;nan;102107.69;4970942;28;20528;-88
2023/01/08 10:01:35;;;;;;;24.27;4.27;;;;;;;16.96;nan;102100.19;4965884;28;20451;-88
2023/01/08 10:04:18;;;;;;;29.27;6.10;;;;;;;17.11;nan;102106.47;4962038;28;20448;-90
2023/01/08 10:07:45;;;;;;;24.87;4.60;;;;;;;17.17;nan;102115.84;5003645;28;20978;-88
2023/01/08 10:10:22;;;;;;;29.30;3.57;;;;;;;17.20;nan;102116.28;5010356;28;20973;-89
2023/01/08 10:12:51;;;;;;;21.00;4.33;;;;;;;17.21;nan;102115.22;5013858;28;20489;-88
2023/01/08 10:15:35;;;;;;;24.77;3.90;;;;;;;17.24;nan;102106.53;4980615;28;20459;-89
2023/01/08 10:18:29;;;;;;;24.10;3.93;;;;;;;17.31;nan;102123.16;4965815;28;20448;-89
2023/01/08 10:20:58;;;;;;;25.93;3.30;;;;;;;17.32;nan;102135.06;5016189;28;20451;-89
2023/01/08 10:23:31;;;;;;;25.97;3.37;;;;;;;17.32;nan;102127.59;4937988;29;20449;-88
2023/01/08 10:26:00;;;;;;;29.23;3.83;;;;;;;17.38;nan;102128.72;4956032;28;20478;-88
2023/01/08 10:28:36;;;;;;;22.80;2.90;;;;;;;17.42;nan;102138.31;4959777;28;20449;-88
2023/01/08 10:31:05;;;;;;;25.97;3.30;;;;;;;17.42;nan;102141.06;4958838;29;20454;-88
2023/01/08 10:33:38;;;;;;;21.53;3.83;;;;;;;17.42;nan;102135.53;4907545;29;20989;-88
2023/01/08 10:36:09;;;;;;;22.03;3.07;;;;;;;17.47;nan;102135.78;4923071;29;20482;-89
2023/01/08 10:39:12;;;;;;;23.00;3.97;;;;;;;17.52;nan;102141.53;4909397;29;20448;-88
2023/01/08 10:42:05;;;;;;;23.17;3.97;;;;;;;17.58;nan;102136.03;4945083;28;20445;-92
2023/01/08 10:48:47;;;;;;;20.17;2.83;;;;;;;17.51;nan;102189.63;4973162;28;20440;-91
2023/01/08 10:51:20;;;;;;;13.53;2.73;;;;;;;17.41;nan;102184.44;4974999;28;20448;-89
2023/01/08 10:53:51;;;;;;;14.13;1.87;;;;;;;17.31;nan;102174.81;4989196;28;20447;-90
2023/01/08 10:56:25;;;;;;;8.50;1.53;;;;;;;17.20;nan;102160.50;5006139;28;20478;-90
2023/01/08 10:58:57;;;;;;;4.00;1.50;;;;;;;17.09;nan;102152.78;4986097;28;20805;-91
2023/01/08 11:01:37;;;;;;;15.30;1.80;;;;;;;17.13;nan;102155.97;4988105;28;20452;-91
2023/01/08 11:04:21;;;;;;;4.33;1.00;;;;;;;17.10;nan;102154.50;4988917;28;20444;-91
2023/01/08 11:06:58;;;;;;;7.40;1.43;;;;;;;17.16;nan;102161.94;4971853;28;20510;-90
2023/01/08 11:09:31;;;;;;;9.20;1.57;;;;;;;17.20;nan;102160.50;4988323;28;20462;-87
2023/01/08 11:12:00;;;;;;;11.30;2.50;;;;;;;17.24;nan;102150.75;5002920;28;20460;-89
2023/01/08 11:14:37;;;;;;;10.50;2.13;;;;;;;17.40;nan;102160.63;4984513;28;20457;-90
2023/01/08 11:17:12;;;;;;;11.40;2.50;;;;;;;17.58;nan;102157.31;5005823;28;20976;-89
2023/01/08 11:19:39;;;;;;;17.20;3.83;;;;;;;17.77;nan;102164.88;4987799;28;20444;-87
2023/01/08 11:22:20;;;;;;;26.03;3.73;;;;;;;17.87;nan;102161.72;4973637;28;20437;-87
2023/01/08 11:24:51;;;;;;;21.77;3.70;;;;;;;17.95;nan;102156.84;4984949;28;20459;-87
2023/01/08 11:27:23;;;;;;;22.63;4.40;;;;;;;18.01;nan;102162.63;5011839;28;20965;-92
2023/01/08 11:30:34;;;;;;;33.87;3.93;;;;;;;18.13;nan;102158.16;4987764;28;20946;-91
2023/01/08 11:33:13;;;;;;;15.20;3.70;;;;;;;18.29;nan;102157.78;5019660;28;20456;-88
2023/01/08 11:36:17;;;;;;;25.43;4.50;;;;;;;18.37;nan;102145.66;5003385;28;20452;-88
2023/01/08 11:38:46;;;;;;;18.00;3.17;;;;;;;18.48;nan;102137.56;4997810;28;20446;-89
2023/01/08 11:41:49;;;;;;;27.37;3.30;;;;;;;18.79;nan;102138.91;4984665;28;20461;-89
2023/01/08 11:44:33;;;;;;;20.63;3.10;;;;;;;19.04;nan;102142.72;4998932;28;20514;-91
2023/01/08 11:47:20;;;;;;;24.77;4.30;;;;;;;19.22;nan;102148.44;4986482;28;20448;-87
2023/01/08 11:50:13;;;;;;;16.77;4.50;;;;;;;19.31;nan;102136.03;4999145;28;20448;-87
2023/01/08 11:52:58;;;;;;;15.77;2.60;;;;;;;19.37;nan;102147.31;4992974;28;20456;-87
2023/01/08 11:55:49;;;;;;;21.33;3.10;;;;;;;19.40;nan;102131.09;4999099;28;20448;-86
2023/01/08 11:58:45;;;;;;;20.70;2.90;;;;;;;19.48;nan;102135.53;4983951;28;20459;-89
2023/01/08 12:01:51;;;;;;;13.67;2.43;;;;;;;19.46;nan;102137.66;4979490;28;20448;-88
2023/01/08 12:04:40;;;;;;;17.60;2.70;;;;;;;19.49;nan;102145.56;4959198;28;20453;-87